This is the latest recevied weather packets stored in our database for station/object KC2BRB-1. If no packets are shown the sender has not sent any weather packets the latest 10 day(s).
| Time | Temp. | Humidity | Pressure | Rain* | Wind** | Luminosity | Snow |
|---|---|---|---|---|---|---|---|
| 1777917440 | 28.33° C | 42% | 1014.1 hPa | 0 mm | - | - | - |
| 1777917140 | 27.22° C | 44% | 1014.1 hPa | 0 mm | - | - | - |
| 1777916841 | 27.22° C | 44% | 1014.1 hPa | 0 mm | - | - | - |
| 1777916540 | 27.22° C | 42% | 1014.4 hPa | 0 mm | - | - | - |
| 1777916241 | 27.22° C | 42% | 1014.4 hPa | 0 mm | - | - | - |
| 1777915941 | 26.67° C | 42% | 1014.6 hPa | 0 mm | - | - | - |
| 1777915511 | 27.22° C | 42% | 1014.6 hPa | 0 mm | - | - | - |
| 1777915041 | 27.22° C | 42% | 1014.6 hPa | 0 mm | - | - | - |
| 1777914980 | 26.67° C | 41% | 1014.7 hPa | 0 mm | - | - | - |
| 1777914741 | 26.67° C | 41% | 1014.7 hPa | 0 mm | - | - | - |
| 1777914001 | 26.67° C | 40% | 1015 hPa | 0 mm | - | - | - |
| 1777913841 | 26.67° C | 40% | 1015 hPa | 0 mm | - | - | - |
| 1777913541 | 26.11° C | 43% | 1015 hPa | 0 mm | - | - | - |
| 1777913329 | 26.11° C | 43% | 1015 hPa | 0 mm | - | - | - |
| 1777913241 | 26.11° C | 43% | 1015 hPa | 0 mm | - | - | - |
| 1777913144 | 26.11° C | 41% | 1015.2 hPa | 0 mm | - | - | - |
| 1777912941 | 26.11° C | 41% | 1015.2 hPa | 0 mm | - | - | - |
| 1777912883 | 26.11° C | 41% | 1015.2 hPa | 0 mm | - | - | - |
| 1777912641 | 26.11° C | 41% | 1015.2 hPa | 0 mm | - | - | - |
| 1777912341 | 25.56° C | 46% | 1015.3 hPa | 0 mm | - | - | - |
| 1777911962 | 25.56° C | 44% | 1015.3 hPa | 0 mm | - | - | - |
| 1777911741 | 25.56° C | 44% | 1015.3 hPa | 0 mm | - | - | - |
| 1777911441 | 25.56° C | 44% | 1015.3 hPa | 0 mm | - | - | - |
| 1777911372 | 25.56° C | 45% | 1015.6 hPa | 0 mm | - | - | - |
| 1777911141 | 25.56° C | 45% | 1015.6 hPa | 0 mm | - | - | - |
* Rain latest hour (hover to see other rain measurements)
** Current wind speed in m/s (hover to see current wind gust speed)